createdAt,value
2022-12-23T00:00:42.382Z,25.73
2022-12-23T00:03:09.629Z,27.77
2022-12-23T00:05:40.959Z,23.30
2022-12-23T00:08:08.451Z,22.70
2022-12-23T00:10:39.810Z,20.37
2022-12-23T00:13:26.916Z,22.27
2022-12-23T00:16:10.571Z,21.63
2022-12-23T00:18:38.352Z,23.77
2022-12-23T00:21:12.313Z,22.03
2022-12-23T00:23:43.009Z,21.60
2022-12-23T00:26:26.269Z,22.70
2022-12-23T00:28:56.619Z,21.10
2022-12-23T00:31:24.212Z,24.23
2022-12-23T00:33:53.652Z,22.37
2022-12-23T00:36:30.616Z,25.60
2022-12-23T00:39:17.946Z,21.90
2022-12-23T00:42:04.063Z,24.97
2022-12-23T00:44:31.445Z,27.23
2022-12-23T00:46:58.603Z,26.30
2022-12-23T00:49:44.479Z,24.93
2022-12-23T00:52:15.708Z,23.13
2022-12-23T00:54:43.124Z,21.73
2022-12-23T00:57:10.373Z,22.97
2022-12-23T00:59:37.415Z,25.30
2022-12-23T01:02:23.812Z,30.57
2022-12-23T01:05:09.284Z,25.80
2022-12-23T01:07:36.327Z,29.87
2022-12-23T01:10:03.973Z,25.57
2022-12-23T01:12:31.106Z,29.10
2022-12-23T01:14:58.139Z,28.37
2022-12-23T01:17:25.289Z,31.07
2022-12-23T01:19:52.413Z,28.67
2022-12-23T01:22:19.533Z,27.83
2022-12-23T01:24:46.532Z,26.13
2022-12-23T01:27:13.938Z,29.77
2022-12-23T01:29:41.035Z,23.83
2022-12-23T01:32:08.242Z,28.97
2022-12-23T01:34:37.570Z,28.40
2022-12-23T01:37:05.363Z,27.20
2022-12-23T01:39:32.501Z,31.47
2022-12-23T01:42:18.318Z,31.40
2022-12-23T01:44:53.750Z,28.40
2022-12-23T01:48:02.173Z,27.43
2022-12-23T01:50:43.542Z,28.53
2022-12-23T01:53:23.933Z,31.43
2022-12-23T01:56:13.619Z,32.40
2022-12-23T01:58:50.747Z,33.77
2022-12-23T02:01:36.619Z,30.03
2022-12-23T02:04:09.105Z,31.43
2022-12-23T02:06:58.010Z,29.03
2022-12-23T02:09:37.444Z,31.10
2022-12-23T02:12:25.255Z,31.90
2022-12-23T02:15:35.340Z,31.53
2022-12-23T02:19:02.840Z,32.27
2022-12-23T02:21:57.329Z,31.77
2022-12-23T02:24:50.806Z,31.67
2022-12-23T02:27:36.923Z,35.53
2022-12-23T02:30:38.055Z,30.77
2022-12-23T02:33:30.259Z,33.10
2022-12-23T02:36:26.497Z,36.60
2022-12-23T02:39:30.819Z,34.30
2022-12-23T02:42:12.708Z,34.67
2022-12-23T02:45:08.895Z,34.37
2022-12-23T02:47:46.895Z,32.27
2022-12-23T02:50:24.587Z,36.20
2022-12-23T02:52:54.807Z,31.37
2022-12-23T02:55:29.513Z,33.60
2022-12-23T02:58:00.771Z,35.87
2022-12-23T03:00:28.739Z,31.67
2022-12-23T03:02:55.839Z,35.77
2022-12-23T03:05:46.180Z,30.57
2022-12-23T03:08:20.613Z,29.57
2022-12-23T03:11:07.070Z,32.33
2022-12-23T03:14:01.384Z,28.80
2022-12-23T03:16:45.560Z,30.87
2022-12-23T03:19:38.811Z,29.77
2022-12-23T03:22:38.247Z,28.87
2022-12-23T03:25:40.409Z,28.60
2022-12-23T03:28:17.743Z,28.60
2022-12-23T03:30:53.294Z,30.00
2022-12-23T03:33:33.024Z,27.13
2022-12-23T03:36:20.364Z,30.00
2022-12-23T03:38:50.479Z,29.13
2022-12-23T03:41:30.345Z,27.27
2022-12-23T03:44:21.083Z,33.90
2022-12-23T03:47:01.701Z,25.27
2022-12-23T03:49:38.117Z,28.47
2022-12-23T03:52:20.876Z,24.97
2022-12-23T03:54:59.294Z,26.33
2022-12-23T03:57:40.853Z,26.20
2022-12-23T04:00:09.455Z,25.47
2022-12-23T04:03:03.718Z,22.80
2022-12-23T04:05:36.692Z,22.13
2022-12-23T04:08:43.656Z,20.37
2022-12-23T04:11:11.418Z,23.83
2022-12-23T04:13:38.674Z,22.33
2022-12-23T04:16:07.224Z,23.37
2022-12-23T04:18:34.416Z,19.23
2022-12-23T04:21:01.395Z,22.53
2022-12-23T04:23:28.416Z,18.93
2022-12-23T04:25:55.495Z,18.60
2022-12-23T04:28:22.533Z,22.90
2022-12-23T04:30:49.589Z,20.90
2022-12-23T04:33:16.667Z,17.73
2022-12-23T04:35:43.691Z,17.63
2022-12-23T04:38:13.219Z,18.07
2022-12-23T04:40:40.271Z,17.57
2022-12-23T04:43:07.292Z,19.60
2022-12-23T04:45:34.392Z,18.50
2022-12-23T04:48:01.412Z,19.97
2022-12-23T04:50:28.466Z,18.20
2022-12-23T04:52:55.606Z,18.33
2022-12-23T04:55:22.766Z,21.20
2022-12-23T04:57:49.808Z,18.20
2022-12-23T05:00:20.428Z,21.43
2022-12-23T05:02:47.713Z,20.80
2022-12-23T05:05:14.907Z,21.77
2022-12-23T05:07:41.907Z,20.70
2022-12-23T05:10:09.965Z,22.33
2022-12-23T05:12:36.987Z,22.33
2022-12-23T05:15:04.322Z,23.73
2022-12-23T05:17:31.311Z,23.17
2022-12-23T05:19:58.368Z,24.53
2022-12-23T05:22:25.490Z,22.80
2022-12-23T05:24:52.562Z,23.33
2022-12-23T05:27:19.665Z,22.80
2022-12-23T05:29:46.818Z,21.40
2022-12-23T05:32:13.926Z,19.93
2022-12-23T05:34:40.961Z,20.07
2022-12-23T05:37:08.101Z,21.67
2022-12-23T05:39:35.139Z,22.33
2022-12-23T05:42:02.266Z,19.23
2022-12-23T05:44:29.325Z,20.13
2022-12-23T05:46:56.403Z,22.03
2022-12-23T05:49:23.436Z,19.77
2022-12-23T05:51:50.515Z,19.47
2022-12-23T05:54:17.507Z,22.33
2022-12-23T05:56:44.528Z,23.63
2022-12-23T05:59:11.697Z,20.47
2022-12-23T06:01:38.853Z,22.47
2022-12-23T06:04:06.106Z,22.63
2022-12-23T06:06:33.229Z,21.80
2022-12-23T06:09:00.482Z,21.80
2022-12-23T06:11:28.059Z,22.03
2022-12-23T06:13:55.158Z,20.80
2022-12-23T06:16:22.372Z,25.37
2022-12-23T06:18:49.458Z,22.50
2022-12-23T06:21:16.565Z,21.67
2022-12-23T06:23:43.585Z,24.63
2022-12-23T06:26:10.831Z,26.53
2022-12-23T06:28:37.878Z,23.23
2022-12-23T06:31:05.107Z,24.10
2022-12-23T06:33:32.141Z,21.47
2022-12-23T06:35:59.236Z,21.90
2022-12-23T06:38:26.367Z,23.50
2022-12-23T06:40:53.427Z,20.80
2022-12-23T06:43:20.551Z,23.47
2022-12-23T06:45:51.032Z,22.30
2022-12-23T06:48:18.239Z,23.37
2022-12-23T06:50:46.374Z,21.30
2022-12-23T06:53:14.501Z,22.33
2022-12-23T06:55:44.123Z,22.63
2022-12-23T06:58:11.233Z,25.60
2022-12-23T07:00:38.342Z,27.80
2022-12-23T07:03:05.549Z,23.87
2022-12-23T07:05:37.363Z,21.17
2022-12-23T07:08:05.637Z,25.47
2022-12-23T07:10:34.188Z,23.17
2022-12-23T07:13:02.321Z,23.30
2022-12-23T07:15:29.508Z,21.70
2022-12-23T07:17:56.716Z,23.90
2022-12-23T07:20:24.114Z,24.37
2022-12-23T07:22:57.310Z,24.70
2022-12-23T07:25:25.286Z,22.23
2022-12-23T07:27:55.806Z,24.10
2022-12-23T07:30:23.909Z,28.40
2022-12-23T07:32:51.404Z,23.27
2022-12-23T07:35:19.021Z,21.13
2022-12-23T07:37:46.047Z,23.43
2022-12-23T07:40:13.763Z,23.13
2022-12-23T07:42:46.654Z,25.00
2022-12-23T07:45:14.401Z,22.20
2022-12-23T07:47:42.159Z,24.63
2022-12-23T07:50:09.958Z,21.47
2022-12-23T07:52:37.567Z,21.27
2022-12-23T07:55:05.789Z,23.13
2022-12-23T07:57:38.033Z,22.67
2022-12-23T08:00:10.801Z,19.53
2022-12-23T08:02:40.970Z,21.57
2022-12-23T08:05:09.070Z,21.63
2022-12-23T08:07:37.055Z,21.17
2022-12-23T08:10:05.939Z,23.50
2022-12-23T08:12:33.449Z,19.80
2022-12-23T08:15:00.631Z,23.87
2022-12-23T08:17:30.301Z,23.17
2022-12-23T08:19:57.630Z,23.83
2022-12-23T08:22:25.018Z,23.93
2022-12-23T08:24:52.707Z,25.93
2022-12-23T08:27:20.147Z,26.57
2022-12-23T08:29:47.376Z,23.23
2022-12-23T08:32:14.421Z,24.27
2022-12-23T08:34:41.495Z,23.80
2022-12-23T08:37:08.630Z,24.23
2022-12-23T08:39:36.114Z,22.43
2022-12-23T08:42:04.182Z,22.17
2022-12-23T08:44:32.798Z,24.70
2022-12-23T08:46:59.857Z,21.30
2022-12-23T08:49:26.918Z,23.40
2022-12-23T08:51:53.940Z,22.80
2022-12-23T08:54:21.064Z,21.37
2022-12-23T08:56:48.088Z,24.03
2022-12-23T08:59:19.649Z,24.20
2022-12-23T09:01:48.390Z,27.17
2022-12-23T09:04:15.911Z,21.60
2022-12-23T09:06:44.485Z,20.57
2022-12-23T09:09:15.875Z,22.23
2022-12-23T09:11:43.282Z,22.27
2022-12-23T09:14:11.941Z,23.20
2022-12-23T09:16:39.763Z,23.33
2022-12-23T09:19:07.892Z,24.03
2022-12-23T09:21:35.304Z,24.27
2022-12-23T09:24:02.595Z,23.77
2022-12-23T09:26:31.712Z,24.47
2022-12-23T09:28:59.784Z,25.40
2022-12-23T09:31:34.050Z,24.93
2022-12-23T09:34:03.218Z,26.50
2022-12-23T09:36:30.268Z,24.63
2022-12-23T09:38:58.139Z,25.07
2022-12-23T09:41:52.679Z,27.93
2022-12-23T09:44:19.601Z,28.43
2022-12-23T09:46:58.636Z,24.33
2022-12-23T09:49:25.893Z,23.50
2022-12-23T09:52:00.154Z,25.77
2022-12-23T09:54:41.878Z,27.33
2022-12-23T09:57:23.889Z,27.30
2022-12-23T10:00:17.302Z,26.50
2022-12-23T10:03:01.422Z,26.87
2022-12-23T10:05:49.771Z,24.10
2022-12-23T10:08:39.810Z,27.63
2022-12-23T10:11:30.099Z,26.93
2022-12-23T10:14:22.223Z,25.43
2022-12-23T10:17:02.478Z,24.07
2022-12-23T10:19:42.148Z,26.13
2022-12-23T10:22:34.435Z,26.57
2022-12-23T10:25:11.060Z,25.50
2022-12-23T10:27:41.482Z,22.10
2022-12-23T10:30:42.668Z,30.33
2022-12-23T10:33:18.649Z,30.90
2022-12-23T10:36:17.452Z,26.50
2022-12-23T10:39:11.753Z,28.47
2022-12-23T10:41:59.515Z,25.67
2022-12-23T10:45:18.778Z,29.60
2022-12-23T10:47:59.702Z,25.73
2022-12-23T10:51:10.907Z,24.37
2022-12-23T10:53:54.400Z,27.70
2022-12-23T10:56:22.202Z,23.93
2022-12-23T10:58:57.114Z,27.37
2022-12-23T11:01:27.364Z,29.60
2022-12-23T11:04:27.419Z,28.70
2022-12-23T11:07:18.180Z,29.60
2022-12-23T11:09:57.398Z,30.57
2022-12-23T11:12:42.174Z,27.20
2022-12-23T11:15:36.930Z,25.57
2022-12-23T11:18:11.443Z,25.63
2022-12-23T11:20:41.426Z,27.67
2022-12-23T11:23:36.633Z,28.93
2022-12-23T11:26:11.815Z,29.23
2022-12-23T11:28:52.936Z,26.73
2022-12-23T11:31:36.534Z,30.27
2022-12-23T11:34:27.127Z,27.37
2022-12-23T11:37:03.659Z,25.67
2022-12-23T11:39:37.063Z,28.20
2022-12-23T11:42:14.152Z,28.33
2022-12-23T11:44:51.796Z,26.17
2022-12-23T11:47:22.360Z,27.43
2022-12-23T11:50:03.195Z,27.97
2022-12-23T11:52:33.460Z,27.70
2022-12-23T11:55:05.907Z,29.33
2022-12-23T11:57:40.422Z,27.83
2022-12-23T12:00:41.717Z,28.47
2022-12-23T12:03:19.660Z,27.27
2022-12-23T12:05:59.152Z,28.23
2022-12-23T12:08:37.599Z,28.77
2022-12-23T12:11:38.192Z,29.80
2022-12-23T12:14:08.388Z,32.17
2022-12-23T12:16:56.671Z,30.60
2022-12-23T12:19:34.610Z,29.90
2022-12-23T12:22:23.364Z,28.47
2022-12-23T12:24:55.560Z,26.73
2022-12-23T12:27:36.122Z,31.77
2022-12-23T12:30:08.888Z,31.33
2022-12-23T12:33:04.232Z,29.00
2022-12-23T12:35:53.744Z,35.27
2022-12-23T12:38:27.009Z,30.23
2022-12-23T12:41:41.042Z,30.80
2022-12-23T12:44:51.267Z,27.67
2022-12-23T12:50:28.052Z,32.37
2022-12-23T12:53:02.173Z,35.70
2022-12-23T12:55:37.995Z,32.47
2022-12-23T12:58:05.439Z,32.87
2022-12-23T13:01:08.641Z,28.50
2022-12-23T13:03:52.819Z,32.73
2022-12-23T13:06:39.502Z,28.70
2022-12-23T13:09:36.741Z,32.37
2022-12-23T13:12:49.266Z,30.07
2022-12-23T13:15:50.247Z,31.27
2022-12-23T13:18:20.746Z,29.93
2022-12-23T13:21:17.141Z,29.73
2022-12-23T13:24:04.093Z,28.20
2022-12-23T13:26:52.480Z,32.90
2022-12-23T13:30:04.357Z,30.67
2022-12-23T13:33:06.964Z,30.93
2022-12-23T13:36:17.604Z,26.77
2022-12-23T13:39:30.371Z,27.57
2022-12-23T13:42:05.195Z,28.17
2022-12-23T13:44:35.460Z,28.80
2022-12-23T13:47:39.557Z,29.70
2022-12-23T13:50:14.203Z,32.97
2022-12-23T13:52:50.003Z,28.00
2022-12-23T13:56:07.129Z,31.60
2022-12-23T13:58:34.775Z,30.80
2022-12-23T14:01:10.717Z,27.90
2022-12-23T14:03:39.854Z,29.50
2022-12-23T14:06:21.229Z,26.73
2022-12-23T14:08:49.753Z,29.93
2022-12-23T14:11:28.578Z,30.13
2022-12-23T14:14:02.572Z,28.77
2022-12-23T14:16:41.583Z,35.77
2022-12-23T14:19:49.233Z,27.63
2022-12-23T14:22:40.731Z,29.93
2022-12-23T14:25:47.893Z,25.87
2022-12-23T14:28:58.053Z,35.23
2022-12-23T14:31:38.551Z,25.07
2022-12-23T14:34:17.919Z,34.80
2022-12-23T14:37:24.765Z,26.00
2022-12-23T14:39:53.181Z,28.90
2022-12-23T14:42:42.699Z,33.37
2022-12-23T14:45:35.433Z,27.20
2022-12-23T14:48:36.206Z,30.33
2022-12-23T14:51:09.834Z,30.40
2022-12-23T14:54:00.164Z,29.37
2022-12-23T14:56:39.296Z,25.30
2022-12-23T14:59:57.359Z,24.80
2022-12-23T15:02:41.309Z,28.37
2022-12-23T15:05:09.891Z,23.83
2022-12-23T15:07:46.507Z,22.73
2022-12-23T15:10:21.842Z,21.73
2022-12-23T15:12:58.071Z,22.60
2022-12-23T15:15:29.529Z,23.77
2022-12-23T15:18:13.623Z,24.57
2022-12-23T15:20:40.927Z,24.03
2022-12-23T15:23:16.791Z,25.53
2022-12-23T15:25:49.246Z,23.77
2022-12-23T15:28:44.960Z,25.30
2022-12-23T15:31:29.306Z,22.47
2022-12-23T15:34:03.429Z,22.07
2022-12-23T15:36:36.909Z,21.97
2022-12-23T15:39:17.643Z,25.93
2022-12-23T15:41:46.596Z,22.90
2022-12-23T15:44:20.426Z,23.23
2022-12-23T15:46:49.161Z,19.63
2022-12-23T15:49:18.079Z,23.70
2022-12-23T15:52:09.685Z,22.87
2022-12-23T15:54:54.073Z,23.73
2022-12-23T15:57:27.229Z,20.10
2022-12-23T15:59:55.183Z,23.97
2022-12-23T16:03:03.433Z,19.13
2022-12-23T16:05:37.623Z,20.33
2022-12-23T16:08:11.217Z,18.17
2022-12-23T16:10:38.750Z,17.77
2022-12-23T16:13:15.483Z,19.53
2022-12-23T16:15:42.555Z,17.47
2022-12-23T16:18:21.969Z,18.07
2022-12-23T16:20:54.217Z,16.90
2022-12-23T16:23:22.131Z,16.70
2022-12-23T16:25:52.930Z,20.20
2022-12-23T16:28:48.589Z,17.97
2022-12-23T16:31:19.633Z,18.33
2022-12-23T16:33:55.346Z,19.00
2022-12-23T16:36:25.411Z,25.07
2022-12-23T16:39:22.841Z,16.70
2022-12-23T16:41:50.609Z,18.20
2022-12-23T16:44:17.774Z,20.23
2022-12-23T16:46:49.326Z,20.00
2022-12-23T16:49:21.004Z,19.60
2022-12-23T16:51:48.720Z,20.47
2022-12-23T16:54:19.727Z,19.67
2022-12-23T16:56:47.013Z,22.23
2022-12-23T16:59:14.780Z,22.77
2022-12-23T17:01:49.575Z,19.73
2022-12-23T17:04:16.687Z,26.63
2022-12-23T17:06:46.538Z,23.60
2022-12-23T17:09:13.934Z,21.83
2022-12-23T17:11:50.992Z,22.27
2022-12-23T17:14:24.939Z,20.93
2022-12-23T17:16:52.791Z,20.20
2022-12-23T17:19:27.282Z,23.53
2022-12-23T17:22:01.386Z,27.17
2022-12-23T17:24:28.810Z,22.77
2022-12-23T17:26:59.528Z,26.60
2022-12-23T17:29:26.627Z,22.67
2022-12-23T17:31:54.307Z,25.00
2022-12-23T17:34:24.250Z,21.80
2022-12-23T17:36:51.853Z,23.87
2022-12-23T17:39:21.063Z,25.87
2022-12-23T17:41:48.650Z,22.00
2022-12-23T17:44:17.646Z,21.30
2022-12-23T17:46:46.439Z,22.20
2022-12-23T17:49:13.502Z,20.77
2022-12-23T17:51:41.377Z,21.13
2022-12-23T17:54:24.666Z,22.67
2022-12-23T17:56:52.104Z,20.93
2022-12-23T17:59:20.536Z,17.40
2022-12-23T18:01:47.979Z,17.03
2022-12-23T18:04:15.103Z,18.40
2022-12-23T18:06:42.117Z,16.00
2022-12-23T18:09:09.168Z,16.33
2022-12-23T18:11:46.400Z,15.50
2022-12-23T18:14:29.251Z,14.57
2022-12-23T18:16:56.393Z,17.57
2022-12-23T18:19:23.557Z,17.23
2022-12-23T18:21:51.717Z,17.27
2022-12-23T18:24:19.029Z,16.77
2022-12-23T18:26:46.190Z,21.07
2022-12-23T18:29:13.435Z,20.60
2022-12-23T18:31:51.481Z,20.27
2022-12-23T18:34:20.493Z,17.80
2022-12-23T18:36:48.432Z,21.80
2022-12-23T18:39:15.760Z,22.60
2022-12-23T18:41:42.792Z,21.50
2022-12-23T18:44:19.874Z,24.23
2022-12-23T18:46:48.241Z,24.57
2022-12-23T18:49:15.339Z,21.40
2022-12-23T18:51:42.423Z,21.90
2022-12-23T18:54:16.849Z,19.87
2022-12-23T18:56:44.345Z,19.30
2022-12-23T18:59:29.518Z,21.83
2022-12-23T19:01:58.250Z,20.07
2022-12-23T19:04:26.975Z,20.83
2022-12-23T19:06:56.279Z,24.07
2022-12-23T19:09:24.683Z,19.00
2022-12-23T19:11:54.160Z,20.50
2022-12-23T19:14:21.408Z,16.77
2022-12-23T19:16:52.018Z,20.03
2022-12-23T19:19:20.462Z,18.43
2022-12-23T19:21:47.481Z,18.93
2022-12-23T19:24:14.518Z,18.23
2022-12-23T19:26:41.782Z,17.67
2022-12-23T19:29:09.270Z,20.73
2022-12-23T19:31:36.361Z,20.20
2022-12-23T19:34:03.493Z,19.80
2022-12-23T19:36:30.974Z,21.73
2022-12-23T19:38:58.742Z,21.50
2022-12-23T19:41:25.870Z,24.90
2022-12-23T19:43:52.957Z,20.93
2022-12-23T19:46:20.036Z,24.57
2022-12-23T19:48:52.401Z,26.63
2022-12-23T19:51:19.995Z,24.47
2022-12-23T19:53:51.556Z,28.83
2022-12-23T19:56:22.393Z,23.27
2022-12-23T19:58:50.649Z,24.50
2022-12-23T20:01:25.109Z,28.03
2022-12-23T20:03:56.756Z,24.67
2022-12-23T20:06:28.385Z,24.83
2022-12-23T20:09:00.279Z,24.47
2022-12-23T20:11:30.639Z,30.00
2022-12-23T20:13:58.919Z,24.50
2022-12-23T20:16:27.430Z,25.07
2022-12-23T20:18:55.445Z,22.77
2022-12-23T20:21:23.016Z,22.27
2022-12-23T20:23:50.695Z,22.73
2022-12-23T20:26:19.415Z,25.47
2022-12-23T20:28:47.056Z,24.60
2022-12-23T20:31:30.365Z,22.63
2022-12-23T20:33:59.152Z,22.77
2022-12-23T20:36:30.203Z,24.43
2022-12-23T20:38:57.869Z,25.80
2022-12-23T20:41:27.927Z,24.20
2022-12-23T20:46:42.713Z,23.00
2022-12-23T20:49:09.862Z,26.80
2022-12-23T20:51:36.967Z,24.27
2022-12-23T20:54:04.093Z,23.50
2022-12-23T20:56:31.880Z,23.87
2022-12-23T20:59:00.206Z,24.23
2022-12-23T21:01:38.148Z,22.23
2022-12-23T21:04:12.790Z,24.43
2022-12-23T21:06:40.422Z,21.47
2022-12-23T21:09:11.043Z,26.87
2022-12-23T21:11:42.997Z,24.30
2022-12-23T21:14:10.635Z,24.33
2022-12-23T21:16:39.015Z,25.07
2022-12-23T21:19:09.106Z,22.67
2022-12-23T21:21:36.430Z,25.10
2022-12-23T21:24:05.080Z,26.90
2022-12-23T21:26:34.618Z,21.37
2022-12-23T21:29:05.993Z,23.67
2022-12-23T21:31:37.618Z,28.27
2022-12-23T21:34:05.316Z,24.17
2022-12-23T21:36:37.203Z,25.33
2022-12-23T21:39:06.189Z,27.30
2022-12-23T21:41:39.420Z,25.47
2022-12-23T21:44:07.271Z,27.83
2022-12-23T21:46:34.455Z,24.63
2022-12-23T21:49:01.619Z,26.27
2022-12-23T21:51:41.921Z,23.30
2022-12-23T21:54:12.959Z,27.53
2022-12-23T21:56:41.216Z,26.47
2022-12-23T21:59:14.776Z,27.17
2022-12-23T22:01:43.100Z,29.77
2022-12-23T22:04:10.419Z,26.80
2022-12-23T22:06:43.539Z,31.77
2022-12-23T22:09:17.248Z,33.23
2022-12-23T22:11:46.017Z,34.07
2022-12-23T22:14:16.617Z,30.53
2022-12-23T22:16:44.134Z,28.63
2022-12-23T22:19:12.147Z,32.23
2022-12-23T22:21:39.855Z,29.33
2022-12-23T22:24:08.207Z,32.60
2022-12-23T22:26:36.017Z,31.60
2022-12-23T22:29:05.981Z,33.07
2022-12-23T22:31:49.651Z,34.27
2022-12-23T22:34:21.280Z,33.03
2022-12-23T22:36:49.240Z,30.93
2022-12-23T22:39:21.698Z,30.57
2022-12-23T22:41:51.277Z,39.27
2022-12-23T22:44:19.398Z,34.10
2022-12-23T22:46:46.594Z,36.30
2022-12-23T22:49:15.371Z,32.97
2022-12-23T22:51:42.963Z,34.57
2022-12-23T22:54:10.504Z,36.23
2022-12-23T22:56:37.823Z,35.97
2022-12-23T22:59:05.005Z,33.43
2022-12-23T23:01:35.908Z,34.63
2022-12-23T23:04:04.206Z,33.77
2022-12-23T23:06:38.340Z,41.83
2022-12-23T23:09:16.662Z,33.90
2022-12-23T23:11:44.584Z,31.63
2022-12-23T23:14:12.493Z,32.20
2022-12-23T23:16:39.876Z,34.17
2022-12-23T23:19:09.157Z,33.07
2022-12-23T23:21:37.768Z,35.57
2022-12-23T23:24:05.797Z,36.90
2022-12-23T23:26:32.954Z,34.80
2022-12-23T23:29:02.935Z,34.27
2022-12-23T23:31:45.389Z,34.87
2022-12-23T23:34:13.698Z,35.30
2022-12-23T23:36:41.658Z,37.43
2022-12-23T23:39:10.930Z,41.57
2022-12-23T23:41:38.016Z,41.37
2022-12-23T23:44:05.279Z,41.90
2022-12-23T23:46:32.552Z,45.07
2022-12-23T23:48:59.899Z,45.30
2022-12-23T23:51:27.199Z,42.93
2022-12-23T23:53:54.337Z,46.40
2022-12-23T23:56:25.832Z,49.17
2022-12-23T23:58:54.619Z,49.13
